sensor_id;sensor_type;location;lat;lon;timestamp;P1;durP1;ratioP1;P2;durP2;ratioP2
84142;SDS011;74260;50.772;7.730;2024-01-11T00:00:08;47.08;;;18.55;;
84142;SDS011;74260;50.772;7.730;2024-01-11T00:00:39;45.00;;;18.42;;
84142;SDS011;74260;50.772;7.730;2024-01-11T00:01:09;42.08;;;17.85;;
84142;SDS011;74260;50.772;7.730;2024-01-11T00:01:44;40.08;;;17.25;;
84142;SDS011;74260;50.772;7.730;2024-01-11T00:02:16;40.33;;;18.60;;
84142;SDS011;74260;50.772;7.730;2024-01-11T00:02:47;47.35;;;18.50;;
84142;SDS011;74260;50.772;7.730;2024-01-11T00:03:18;39.13;;;17.00;;
84142;SDS011;74260;50.772;7.730;2024-01-11T00:03:48;46.33;;;18.90;;
84142;SDS011;74260;50.772;7.730;2024-01-11T00:04:19;44.50;;;17.88;;
84142;SDS011;74260;50.772;7.730;2024-01-11T00:04:52;41.95;;;17.35;;
84142;SDS011;74260;50.772;7.730;2024-01-11T00:05:23;40.17;;;17.63;;
84142;SDS011;74260;50.772;7.730;2024-01-11T00:05:54;45.22;;;17.48;;
84142;SDS011;74260;50.772;7.730;2024-01-11T00:06:28;47.35;;;19.23;;
84142;SDS011;74260;50.772;7.730;2024-01-11T00:07:04;45.90;;;17.50;;
84142;SDS011;74260;50.772;7.730;2024-01-11T00:07:37;40.85;;;17.67;;
84142;SDS011;74260;50.772;7.730;2024-01-11T00:08:07;42.83;;;18.73;;
84142;SDS011;74260;50.772;7.730;2024-01-11T00:08:40;45.05;;;18.85;;
84142;SDS011;74260;50.772;7.730;2024-01-11T00:09:11;44.10;;;18.23;;
84142;SDS011;74260;50.772;7.730;2024-01-11T00:09:42;45.22;;;18.55;;
84142;SDS011;74260;50.772;7.730;2024-01-11T00:10:12;42.20;;;18.80;;
84142;SDS011;74260;50.772;7.730;2024-01-11T00:10:43;48.15;;;19.00;;
84142;SDS011;74260;50.772;7.730;2024-01-11T00:11:13;49.55;;;19.83;;
84142;SDS011;74260;50.772;7.730;2024-01-11T00:11:44;42.30;;;19.00;;
84142;SDS011;74260;50.772;7.730;2024-01-11T00:12:14;45.88;;;18.73;;
84142;SDS011;74260;50.772;7.730;2024-01-11T00:12:44;40.20;;;17.95;;
84142;SDS011;74260;50.772;7.730;2024-01-11T00:13:15;45.15;;;19.67;;
84142;SDS011;74260;50.772;7.730;2024-01-11T00:13:45;45.92;;;18.17;;
84142;SDS011;74260;50.772;7.730;2024-01-11T00:14:16;49.85;;;19.08;;
84142;SDS011;74260;50.772;7.730;2024-01-11T00:14:46;42.40;;;18.42;;
84142;SDS011;74260;50.772;7.730;2024-01-11T00:15:16;43.55;;;18.45;;
84142;SDS011;74260;50.772;7.730;2024-01-11T00:15:47;42.83;;;18.08;;
84142;SDS011;74260;50.772;7.730;2024-01-11T00:16:19;44.40;;;17.60;;
84142;SDS011;74260;50.772;7.730;2024-01-11T00:16:49;42.65;;;18.20;;
84142;SDS011;74260;50.772;7.730;2024-01-11T00:17:20;44.75;;;18.77;;
84142;SDS011;74260;50.772;7.730;2024-01-11T00:17:50;46.88;;;17.25;;
84142;SDS011;74260;50.772;7.730;2024-01-11T00:18:20;46.05;;;18.67;;
84142;SDS011;74260;50.772;7.730;2024-01-11T00:18:51;39.80;;;17.15;;
84142;SDS011;74260;50.772;7.730;2024-01-11T00:19:21;42.67;;;18.17;;
84142;SDS011;74260;50.772;7.730;2024-01-11T00:19:52;40.10;;;17.25;;
84142;SDS011;74260;50.772;7.730;2024-01-11T00:20:22;40.90;;;18.00;;
84142;SDS011;74260;50.772;7.730;2024-01-11T00:20:53;41.83;;;17.85;;
84142;SDS011;74260;50.772;7.730;2024-01-11T00:21:23;39.88;;;17.67;;
84142;SDS011;74260;50.772;7.730;2024-01-11T00:21:53;38.65;;;17.17;;
84142;SDS011;74260;50.772;7.730;2024-01-11T00:22:24;41.10;;;18.30;;
84142;SDS011;74260;50.772;7.730;2024-01-11T00:22:54;41.45;;;16.95;;
84142;SDS011;74260;50.772;7.730;2024-01-11T00:23:28;36.10;;;17.15;;
84142;SDS011;74260;50.772;7.730;2024-01-11T00:23:59;42.35;;;17.27;;
84142;SDS011;74260;50.772;7.730;2024-01-11T00:24:30;43.45;;;17.58;;
84142;SDS011;74260;50.772;7.730;2024-01-11T00:25:03;41.83;;;19.00;;
84142;SDS011;74260;50.772;7.730;2024-01-11T00:25:36;44.67;;;19.50;;
84142;SDS011;74260;50.772;7.730;2024-01-11T00:26:12;43.15;;;18.77;;
84142;SDS011;74260;50.772;7.730;2024-01-11T00:26:43;40.83;;;18.45;;
84142;SDS011;74260;50.772;7.730;2024-01-11T00:27:13;41.47;;;17.52;;
84142;SDS011;74260;50.772;7.730;2024-01-11T00:27:44;42.72;;;17.02;;
84142;SDS011;74260;50.772;7.730;2024-01-11T00:28:15;43.42;;;17.98;;
84142;SDS011;74260;50.772;7.730;2024-01-11T00:28:45;39.40;;;16.27;;
84142;SDS011;74260;50.772;7.730;2024-01-11T00:29:19;43.65;;;17.73;;
84142;SDS011;74260;50.772;7.730;2024-01-11T00:29:50;42.88;;;18.42;;
84142;SDS011;74260;50.772;7.730;2024-01-11T00:30:20;40.30;;;17.08;;
84142;SDS011;74260;50.772;7.730;2024-01-11T00:30:50;49.45;;;18.83;;
84142;SDS011;74260;50.772;7.730;2024-01-11T00:31:21;37.10;;;18.83;;
84142;SDS011;74260;50.772;7.730;2024-01-11T00:31:51;41.13;;;19.15;;
84142;SDS011;74260;50.772;7.730;2024-01-11T00:32:22;46.60;;;20.23;;
84142;SDS011;74260;50.772;7.730;2024-01-11T00:32:52;48.60;;;20.42;;
84142;SDS011;74260;50.772;7.730;2024-01-11T00:33:22;41.60;;;17.85;;
84142;SDS011;74260;50.772;7.730;2024-01-11T00:33:53;40.60;;;16.63;;
84142;SDS011;74260;50.772;7.730;2024-01-11T00:34:23;46.35;;;18.65;;
84142;SDS011;74260;50.772;7.730;2024-01-11T00:34:53;46.35;;;19.52;;
84142;SDS011;74260;50.772;7.730;2024-01-11T00:35:24;43.00;;;19.77;;
84142;SDS011;74260;50.772;7.730;2024-01-11T00:35:54;40.70;;;18.27;;
84142;SDS011;74260;50.772;7.730;2024-01-11T00:36:25;44.88;;;17.77;;
84142;SDS011;74260;50.772;7.730;2024-01-11T00:36:56;45.47;;;19.08;;
84142;SDS011;74260;50.772;7.730;2024-01-11T00:37:26;45.00;;;19.50;;
84142;SDS011;74260;50.772;7.730;2024-01-11T00:37:57;42.35;;;18.35;;
84142;SDS011;74260;50.772;7.730;2024-01-11T00:38:27;41.95;;;18.52;;
84142;SDS011;74260;50.772;7.730;2024-01-11T00:38:58;41.78;;;18.08;;
84142;SDS011;74260;50.772;7.730;2024-01-11T00:39:28;44.67;;;17.95;;
84142;SDS011;74260;50.772;7.730;2024-01-11T00:39:59;42.83;;;17.90;;
84142;SDS011;74260;50.772;7.730;2024-01-11T00:40:29;41.35;;;18.23;;
84142;SDS011;74260;50.772;7.730;2024-01-11T00:41:00;45.67;;;18.17;;
84142;SDS011;74260;50.772;7.730;2024-01-11T00:41:30;50.50;;;18.38;;
84142;SDS011;74260;50.772;7.730;2024-01-11T00:42:00;40.17;;;17.17;;
84142;SDS011;74260;50.772;7.730;2024-01-11T00:42:31;44.05;;;18.10;;
84142;SDS011;74260;50.772;7.730;2024-01-11T00:43:02;37.03;;;16.98;;
84142;SDS011;74260;50.772;7.730;2024-01-11T00:43:33;44.47;;;18.05;;
84142;SDS011;74260;50.772;7.730;2024-01-11T00:44:03;42.42;;;17.77;;
84142;SDS011;74260;50.772;7.730;2024-01-11T00:44:33;41.35;;;17.85;;
84142;SDS011;74260;50.772;7.730;2024-01-11T00:45:04;41.17;;;17.27;;
84142;SDS011;74260;50.772;7.730;2024-01-11T00:45:34;44.80;;;19.55;;
84142;SDS011;74260;50.772;7.730;2024-01-11T00:46:05;44.08;;;18.38;;
84142;SDS011;74260;50.772;7.730;2024-01-11T00:46:35;42.20;;;17.40;;
84142;SDS011;74260;50.772;7.730;2024-01-11T00:47:06;44.38;;;18.05;;
84142;SDS011;74260;50.772;7.730;2024-01-11T00:47:37;49.75;;;19.15;;
84142;SDS011;74260;50.772;7.730;2024-01-11T00:48:07;43.25;;;17.40;;
84142;SDS011;74260;50.772;7.730;2024-01-11T00:48:37;44.45;;;18.27;;
84142;SDS011;74260;50.772;7.730;2024-01-11T00:49:08;38.80;;;16.20;;
84142;SDS011;74260;50.772;7.730;2024-01-11T00:49:38;48.10;;;19.33;;
84142;SDS011;74260;50.772;7.730;2024-01-11T00:50:09;50.35;;;19.20;;
84142;SDS011;74260;50.772;7.730;2024-01-11T00:50:39;42.85;;;18.45;;
84142;SDS011;74260;50.772;7.730;2024-01-11T00:51:10;48.97;;;19.08;;
84142;SDS011;74260;50.772;7.730;2024-01-11T00:51:40;46.97;;;19.90;;
84142;SDS011;74260;50.772;7.730;2024-01-11T00:52:11;46.60;;;19.08;;
84142;SDS011;74260;50.772;7.730;2024-01-11T00:52:43;44.17;;;17.48;;
84142;SDS011;74260;50.772;7.730;2024-01-11T00:53:14;50.25;;;19.55;;
84142;SDS011;74260;50.772;7.730;2024-01-11T00:53:44;47.67;;;18.75;;
84142;SDS011;74260;50.772;7.730;2024-01-11T00:54:15;47.70;;;19.60;;
84142;SDS011;74260;50.772;7.730;2024-01-11T00:54:45;44.33;;;18.98;;
84142;SDS011;74260;50.772;7.730;2024-01-11T00:55:15;44.35;;;18.60;;
84142;SDS011;74260;50.772;7.730;2024-01-11T00:55:46;52.05;;;19.92;;
84142;SDS011;74260;50.772;7.730;2024-01-11T00:56:17;47.78;;;18.35;;
84142;SDS011;74260;50.772;7.730;2024-01-11T00:56:50;47.28;;;18.17;;
84142;SDS011;74260;50.772;7.730;2024-01-11T00:57:21;45.95;;;20.80;;
84142;SDS011;74260;50.772;7.730;2024-01-11T00:57:51;46.08;;;20.67;;
84142;SDS011;74260;50.772;7.730;2024-01-11T00:58:22;41.97;;;17.98;;
84142;SDS011;74260;50.772;7.730;2024-01-11T00:58:52;50.30;;;18.92;;
84142;SDS011;74260;50.772;7.730;2024-01-11T00:59:23;41.95;;;17.88;;
84142;SDS011;74260;50.772;7.730;2024-01-11T00:59:53;48.05;;;18.38;;
84142;SDS011;74260;50.772;7.730;2024-01-11T01:00:23;45.97;;;19.42;;
84142;SDS011;74260;50.772;7.730;2024-01-11T01:00:54;44.88;;;18.70;;
84142;SDS011;74260;50.772;7.730;2024-01-11T01:01:24;50.65;;;18.15;;
84142;SDS011;74260;50.772;7.730;2024-01-11T01:01:55;44.88;;;17.80;;
84142;SDS011;74260;50.772;7.730;2024-01-11T01:02:25;46.45;;;18.35;;
84142;SDS011;74260;50.772;7.730;2024-01-11T01:02:55;48.13;;;18.15;;
84142;SDS011;74260;50.772;7.730;2024-01-11T01:03:26;41.38;;;17.63;;
84142;SDS011;74260;50.772;7.730;2024-01-11T01:03:56;44.28;;;18.33;;
84142;SDS011;74260;50.772;7.730;2024-01-11T01:04:26;46.38;;;18.63;;
84142;SDS011;74260;50.772;7.730;2024-01-11T01:04:57;44.03;;;17.83;;
84142;SDS011;74260;50.772;7.730;2024-01-11T01:05:28;46.75;;;17.80;;
84142;SDS011;74260;50.772;7.730;2024-01-11T01:05:58;40.67;;;19.02;;
84142;SDS011;74260;50.772;7.730;2024-01-11T01:06:29;47.90;;;18.20;;
84142;SDS011;74260;50.772;7.730;2024-01-11T01:06:59;44.15;;;18.48;;
84142;SDS011;74260;50.772;7.730;2024-01-11T01:07:30;47.20;;;18.20;;
84142;SDS011;74260;50.772;7.730;2024-01-11T01:08:00;43.75;;;17.23;;
84142;SDS011;74260;50.772;7.730;2024-01-11T01:08:30;42.38;;;17.65;;
84142;SDS011;74260;50.772;7.730;2024-01-11T01:09:01;47.30;;;18.35;;
84142;SDS011;74260;50.772;7.730;2024-01-11T01:09:32;45.85;;;19.33;;
84142;SDS011;74260;50.772;7.730;2024-01-11T01:10:02;44.92;;;17.75;;
84142;SDS011;74260;50.772;7.730;2024-01-11T01:10:33;43.45;;;18.83;;
84142;SDS011;74260;50.772;7.730;2024-01-11T01:11:03;43.80;;;18.95;;
84142;SDS011;74260;50.772;7.730;2024-01-11T01:11:34;47.03;;;18.08;;
84142;SDS011;74260;50.772;7.730;2024-01-11T01:12:04;45.85;;;17.88;;
84142;SDS011;74260;50.772;7.730;2024-01-11T01:12:36;41.50;;;17.52;;
84142;SDS011;74260;50.772;7.730;2024-01-11T01:13:06;46.60;;;17.95;;
84142;SDS011;74260;50.772;7.730;2024-01-11T01:13:37;45.72;;;18.10;;
84142;SDS011;74260;50.772;7.730;2024-01-11T01:14:07;46.30;;;19.63;;
84142;SDS011;74260;50.772;7.730;2024-01-11T01:14:39;46.25;;;17.80;;
84142;SDS011;74260;50.772;7.730;2024-01-11T01:15:09;41.72;;;18.02;;
84142;SDS011;74260;50.772;7.730;2024-01-11T01:15:40;43.13;;;18.92;;
84142;SDS011;74260;50.772;7.730;2024-01-11T01:16:10;44.08;;;18.02;;
84142;SDS011;74260;50.772;7.730;2024-01-11T01:16:41;42.08;;;17.48;;
84142;SDS011;74260;50.772;7.730;2024-01-11T01:17:11;39.13;;;16.60;;
84142;SDS011;74260;50.772;7.730;2024-01-11T01:17:42;42.45;;;17.70;;
84142;SDS011;74260;50.772;7.730;2024-01-11T01:18:12;41.65;;;17.30;;
84142;SDS011;74260;50.772;7.730;2024-01-11T01:18:42;41.75;;;17.52;;
84142;SDS011;74260;50.772;7.730;2024-01-11T01:19:13;44.13;;;18.50;;
84142;SDS011;74260;50.772;7.730;2024-01-11T01:19:43;39.13;;;17.63;;
84142;SDS011;74260;50.772;7.730;2024-01-11T01:20:14;46.33;;;18.65;;
84142;SDS011;74260;50.772;7.730;2024-01-11T01:20:44;42.75;;;17.38;;
84142;SDS011;74260;50.772;7.730;2024-01-11T01:21:15;45.05;;;17.40;;
84142;SDS011;74260;50.772;7.730;2024-01-11T01:21:45;42.95;;;17.35;;
84142;SDS011;74260;50.772;7.730;2024-01-11T01:22:15;42.35;;;17.83;;
84142;SDS011;74260;50.772;7.730;2024-01-11T01:22:46;39.00;;;16.45;;
84142;SDS011;74260;50.772;7.730;2024-01-11T01:23:16;44.30;;;17.60;;
84142;SDS011;74260;50.772;7.730;2024-01-11T01:23:48;39.95;;;16.27;;
84142;SDS011;74260;50.772;7.730;2024-01-11T01:24:18;41.88;;;17.48;;
84142;SDS011;74260;50.772;7.730;2024-01-11T01:24:48;42.13;;;17.50;;
84142;SDS011;74260;50.772;7.730;2024-01-11T01:25:19;44.25;;;18.15;;
84142;SDS011;74260;50.772;7.730;2024-01-11T01:25:50;39.70;;;16.73;;
84142;SDS011;74260;50.772;7.730;2024-01-11T01:26:21;43.92;;;18.17;;
84142;SDS011;74260;50.772;7.730;2024-01-11T01:26:52;44.13;;;17.20;;
84142;SDS011;74260;50.772;7.730;2024-01-11T01:27:22;36.97;;;16.77;;
84142;SDS011;74260;50.772;7.730;2024-01-11T01:27:52;42.90;;;17.73;;
84142;SDS011;74260;50.772;7.730;2024-01-11T01:28:23;40.47;;;17.45;;
84142;SDS011;74260;50.772;7.730;2024-01-11T01:28:53;36.90;;;17.33;;
84142;SDS011;74260;50.772;7.730;2024-01-11T01:29:24;38.40;;;16.42;;
84142;SDS011;74260;50.772;7.730;2024-01-11T01:29:54;43.95;;;18.38;;
84142;SDS011;74260;50.772;7.730;2024-01-11T01:30:25;40.70;;;17.27;;
84142;SDS011;74260;50.772;7.730;2024-01-11T01:30:55;43.90;;;17.38;;
84142;SDS011;74260;50.772;7.730;2024-01-11T01:31:25;40.78;;;17.10;;
84142;SDS011;74260;50.772;7.730;2024-01-11T01:31:56;38.97;;;16.52;;
84142;SDS011;74260;50.772;7.730;2024-01-11T01:32:26;40.80;;;17.08;;
84142;SDS011;74260;50.772;7.730;2024-01-11T01:32:56;40.65;;;18.15;;
84142;SDS011;74260;50.772;7.730;2024-01-11T01:33:27;38.55;;;16.55;;
84142;SDS011;74260;50.772;7.730;2024-01-11T01:33:57;44.58;;;17.65;;
84142;SDS011;74260;50.772;7.730;2024-01-11T01:34:27;41.63;;;16.63;;
84142;SDS011;74260;50.772;7.730;2024-01-11T01:34:58;37.20;;;17.02;;
84142;SDS011;74260;50.772;7.730;2024-01-11T01:35:28;42.53;;;17.27;;
84142;SDS011;74260;50.772;7.730;2024-01-11T01:35:58;43.53;;;17.42;;
84142;SDS011;74260;50.772;7.730;2024-01-11T01:36:29;38.35;;;17.17;;
84142;SDS011;74260;50.772;7.730;2024-01-11T01:36:59;41.65;;;18.08;;
84142;SDS011;74260;50.772;7.730;2024-01-11T01:37:29;37.45;;;17.38;;
84142;SDS011;74260;50.772;7.730;2024-01-11T01:38:00;42.03;;;17.70;;
84142;SDS011;74260;50.772;7.730;2024-01-11T01:38:30;40.95;;;16.40;;
84142;SDS011;74260;50.772;7.730;2024-01-11T01:39:01;40.53;;;16.77;;
84142;SDS011;74260;50.772;7.730;2024-01-11T01:39:31;39.75;;;16.13;;
84142;SDS011;74260;50.772;7.730;2024-01-11T01:40:01;40.55;;;17.13;;
84142;SDS011;74260;50.772;7.730;2024-01-11T01:40:32;44.35;;;18.50;;
84142;SDS011;74260;50.772;7.730;2024-01-11T01:41:02;38.33;;;17.25;;
84142;SDS011;74260;50.772;7.730;2024-01-11T01:41:33;40.53;;;16.40;;
84142;SDS011;74260;50.772;7.730;2024-01-11T01:42:03;40.00;;;17.38;;
84142;SDS011;74260;50.772;7.730;2024-01-11T01:42:34;37.72;;;16.75;;
84142;SDS011;74260;50.772;7.730;2024-01-11T01:43:08;37.35;;;16.52;;
84142;SDS011;74260;50.772;7.730;2024-01-11T01:43:42;44.33;;;17.15;;
84142;SDS011;74260;50.772;7.730;2024-01-11T01:44:13;40.90;;;16.85;;
84142;SDS011;74260;50.772;7.730;2024-01-11T01:44:43;40.25;;;16.70;;
84142;SDS011;74260;50.772;7.730;2024-01-11T01:45:14;42.53;;;16.38;;
84142;SDS011;74260;50.772;7.730;2024-01-11T01:45:45;38.20;;;17.02;;
84142;SDS011;74260;50.772;7.730;2024-01-11T01:46:22;41.60;;;17.33;;
84142;SDS011;74260;50.772;7.730;2024-01-11T01:46:53;44.42;;;16.65;;
84142;SDS011;74260;50.772;7.730;2024-01-11T01:47:24;44.40;;;16.98;;
84142;SDS011;74260;50.772;7.730;2024-01-11T01:47:55;40.90;;;16.38;;
84142;SDS011;74260;50.772;7.730;2024-01-11T01:48:26;47.22;;;17.65;;
84142;SDS011;74260;50.772;7.730;2024-01-11T01:48:57;39.75;;;17.13;;
84142;SDS011;74260;50.772;7.730;2024-01-11T01:49:28;44.78;;;17.20;;
84142;SDS011;74260;50.772;7.730;2024-01-11T01:49:59;37.63;;;16.80;;
84142;SDS011;74260;50.772;7.730;2024-01-11T01:50:29;42.97;;;16.63;;
84142;SDS011;74260;50.772;7.730;2024-01-11T01:51:01;38.13;;;17.20;;
84142;SDS011;74260;50.772;7.730;2024-01-11T01:51:32;44.30;;;17.42;;
84142;SDS011;74260;50.772;7.730;2024-01-11T01:52:03;41.92;;;17.50;;
84142;SDS011;74260;50.772;7.730;2024-01-11T01:52:34;36.00;;;16.40;;
84142;SDS011;74260;50.772;7.730;2024-01-11T01:53:05;39.13;;;17.02;;
84142;SDS011;74260;50.772;7.730;2024-01-11T01:53:36;43.28;;;17.40;;
84142;SDS011;74260;50.772;7.730;2024-01-11T01:54:07;40.72;;;17.25;;
84142;SDS011;74260;50.772;7.730;2024-01-11T01:54:37;39.35;;;16.33;;
84142;SDS011;74260;50.772;7.730;2024-01-11T01:55:08;41.85;;;16.60;;
84142;SDS011;74260;50.772;7.730;2024-01-11T01:55:40;41.80;;;16.90;;
84142;SDS011;74260;50.772;7.730;2024-01-11T01:56:10;37.45;;;16.13;;
84142;SDS011;74260;50.772;7.730;2024-01-11T01:56:41;36.70;;;15.77;;
84142;SDS011;74260;50.772;7.730;2024-01-11T01:57:12;37.88;;;16.55;;
84142;SDS011;74260;50.772;7.730;2024-01-11T01:57:43;39.10;;;16.33;;
84142;SDS011;74260;50.772;7.730;2024-01-11T01:58:15;39.80;;;15.98;;
84142;SDS011;74260;50.772;7.730;2024-01-11T01:58:48;36.80;;;15.85;;
84142;SDS011;74260;50.772;7.730;2024-01-11T01:59:21;39.28;;;17.20;;
84142;SDS011;74260;50.772;7.730;2024-01-11T01:59:54;40.90;;;16.95;;
84142;SDS011;74260;50.772;7.730;2024-01-11T02:00:26;39.05;;;16.48;;
84142;SDS011;74260;50.772;7.730;2024-01-11T02:00:57;40.40;;;16.83;;
84142;SDS011;74260;50.772;7.730;2024-01-11T02:01:27;40.00;;;16.50;;
84142;SDS011;74260;50.772;7.730;2024-01-11T02:01:58;39.75;;;17.13;;
84142;SDS011;74260;50.772;7.730;2024-01-11T02:02:28;41.85;;;17.95;;
84142;SDS011;74260;50.772;7.730;2024-01-11T02:03:01;45.17;;;18.35;;
84142;SDS011;74260;50.772;7.730;2024-01-11T02:03:31;43.85;;;17.45;;
84142;SDS011;74260;50.772;7.730;2024-01-11T02:04:01;41.38;;;17.10;;
84142;SDS011;74260;50.772;7.730;2024-01-11T02:04:32;42.80;;;18.35;;
84142;SDS011;74260;50.772;7.730;2024-01-11T02:05:04;40.53;;;17.80;;
84142;SDS011;74260;50.772;7.730;2024-01-11T02:05:35;43.45;;;17.85;;
84142;SDS011;74260;50.772;7.730;2024-01-11T02:06:06;42.60;;;17.17;;
84142;SDS011;74260;50.772;7.730;2024-01-11T02:06:38;43.63;;;18.48;;
84142;SDS011;74260;50.772;7.730;2024-01-11T02:07:10;41.22;;;17.70;;
84142;SDS011;74260;50.772;7.730;2024-01-11T02:07:41;47.28;;;18.58;;
84142;SDS011;74260;50.772;7.730;2024-01-11T02:08:12;47.95;;;18.92;;
84142;SDS011;74260;50.772;7.730;2024-01-11T02:08:46;44.50;;;17.75;;
84142;SDS011;74260;50.772;7.730;2024-01-11T02:09:16;44.22;;;17.60;;
84142;SDS011;74260;50.772;7.730;2024-01-11T02:09:47;50.20;;;19.00;;
84142;SDS011;74260;50.772;7.730;2024-01-11T02:10:18;49.03;;;19.08;;
84142;SDS011;74260;50.772;7.730;2024-01-11T02:10:49;40.95;;;18.15;;
84142;SDS011;74260;50.772;7.730;2024-01-11T02:11:19;47.53;;;18.25;;
84142;SDS011;74260;50.772;7.730;2024-01-11T02:11:54;41.97;;;18.45;;
84142;SDS011;74260;50.772;7.730;2024-01-11T02:12:25;43.35;;;18.35;;
84142;SDS011;74260;50.772;7.730;2024-01-11T02:12:55;45.13;;;19.48;;
84142;SDS011;74260;50.772;7.730;2024-01-11T02:13:26;41.10;;;17.55;;
84142;SDS011;74260;50.772;7.730;2024-01-11T02:13:56;47.08;;;18.75;;
84142;SDS011;74260;50.772;7.730;2024-01-11T02:14:27;47.25;;;18.52;;
84142;SDS011;74260;50.772;7.730;2024-01-11T02:14:58;41.20;;;17.90;;
84142;SDS011;74260;50.772;7.730;2024-01-11T02:15:29;44.17;;;18.85;;
84142;SDS011;74260;50.772;7.730;2024-01-11T02:15:59;48.65;;;18.88;;
84142;SDS011;74260;50.772;7.730;2024-01-11T02:16:29;43.33;;;18.45;;
84142;SDS011;74260;50.772;7.730;2024-01-11T02:17:00;46.95;;;17.95;;
84142;SDS011;74260;50.772;7.730;2024-01-11T02:17:33;48.50;;;18.33;;
84142;SDS011;74260;50.772;7.730;2024-01-11T02:18:04;44.72;;;18.45;;
84142;SDS011;74260;50.772;7.730;2024-01-11T02:18:34;49.95;;;19.02;;
84142;SDS011;74260;50.772;7.730;2024-01-11T02:19:05;47.90;;;19.13;;
84142;SDS011;74260;50.772;7.730;2024-01-11T02:19:37;45.75;;;18.90;;
84142;SDS011;74260;50.772;7.730;2024-01-11T02:20:08;45.40;;;19.45;;
84142;SDS011;74260;50.772;7.730;2024-01-11T02:20:38;47.33;;;19.15;;
84142;SDS011;74260;50.772;7.730;2024-01-11T02:21:09;46.15;;;18.58;;
84142;SDS011;74260;50.772;7.730;2024-01-11T02:21:42;48.00;;;17.40;;
84142;SDS011;74260;50.772;7.730;2024-01-11T02:22:35;46.00;;;19.75;;
84142;SDS011;74260;50.772;7.730;2024-01-11T02:23:14;42.50;;;17.08;;
84142;SDS011;74260;50.772;7.730;2024-01-11T02:24:03;45.80;;;17.75;;
84142;SDS011;74260;50.772;7.730;2024-01-11T02:24:36;45.72;;;17.77;;
84142;SDS011;74260;50.772;7.730;2024-01-11T02:25:07;40.03;;;17.42;;
84142;SDS011;74260;50.772;7.730;2024-01-11T02:25:37;38.97;;;16.77;;
84142;SDS011;74260;50.772;7.730;2024-01-11T02:26:07;35.78;;;17.52;;
84142;SDS011;74260;50.772;7.730;2024-01-11T02:26:52;45.88;;;19.23;;
84142;SDS011;74260;50.772;7.730;2024-01-11T02:27:28;41.53;;;18.05;;
84142;SDS011;74260;50.772;7.730;2024-01-11T02:27:59;36.55;;;16.60;;
84142;SDS011;74260;50.772;7.730;2024-01-11T02:28:29;41.78;;;17.90;;
84142;SDS011;74260;50.772;7.730;2024-01-11T02:29:00;45.28;;;17.52;;
84142;SDS011;74260;50.772;7.730;2024-01-11T02:29:31;39.47;;;17.23;;
84142;SDS011;74260;50.772;7.730;2024-01-11T02:30:02;42.50;;;18.95;;
84142;SDS011;74260;50.772;7.730;2024-01-11T02:30:32;43.53;;;17.92;;
84142;SDS011;74260;50.772;7.730;2024-01-11T02:31:02;41.47;;;17.90;;
84142;SDS011;74260;50.772;7.730;2024-01-11T02:31:34;39.25;;;17.83;;
84142;SDS011;74260;50.772;7.730;2024-01-11T02:32:04;40.33;;;17.20;;
84142;SDS011;74260;50.772;7.730;2024-01-11T02:32:36;38.72;;;17.70;;
84142;SDS011;74260;50.772;7.730;2024-01-11T02:33:06;43.75;;;17.48;;
84142;SDS011;74260;50.772;7.730;2024-01-11T02:33:37;40.03;;;16.52;;
84142;SDS011;74260;50.772;7.730;2024-01-11T02:34:08;45.90;;;17.25;;
84142;SDS011;74260;50.772;7.730;2024-01-11T02:34:40;36.00;;;17.25;;
84142;SDS011;74260;50.772;7.730;2024-01-11T02:35:11;40.90;;;16.85;;
84142;SDS011;74260;50.772;7.730;2024-01-11T02:35:42;40.58;;;16.40;;
84142;SDS011;74260;50.772;7.730;2024-01-11T02:36:13;38.13;;;16.63;;
84142;SDS011;74260;50.772;7.730;2024-01-11T02:36:43;39.42;;;17.30;;
84142;SDS011;74260;50.772;7.730;2024-01-11T02:37:14;42.75;;;16.58;;
84142;SDS011;74260;50.772;7.730;2024-01-11T02:37:44;40.05;;;17.60;;
84142;SDS011;74260;50.772;7.730;2024-01-11T02:38:16;45.30;;;17.50;;
84142;SDS011;74260;50.772;7.730;2024-01-11T02:38:46;39.83;;;16.98;;
84142;SDS011;74260;50.772;7.730;2024-01-11T02:39:18;40.97;;;17.05;;
84142;SDS011;74260;50.772;7.730;2024-01-11T02:39:49;43.28;;;17.15;;
84142;SDS011;74260;50.772;7.730;2024-01-11T02:40:20;35.08;;;15.60;;
84142;SDS011;74260;50.772;7.730;2024-01-11T02:40:50;40.08;;;18.00;;
84142;SDS011;74260;50.772;7.730;2024-01-11T02:41:21;37.22;;;16.55;;
84142;SDS011;74260;50.772;7.730;2024-01-11T02:41:54;43.35;;;17.40;;
84142;SDS011;74260;50.772;7.730;2024-01-11T02:42:25;39.03;;;16.63;;
84142;SDS011;74260;50.772;7.730;2024-01-11T02:42:56;38.55;;;16.17;;
84142;SDS011;74260;50.772;7.730;2024-01-11T02:43:27;37.97;;;15.98;;
84142;SDS011;74260;50.772;7.730;2024-01-11T02:43:57;45.38;;;17.77;;
84142;SDS011;74260;50.772;7.730;2024-01-11T02:44:28;44.20;;;17.52;;
84142;SDS011;74260;50.772;7.730;2024-01-11T02:44:59;39.85;;;16.20;;
84142;SDS011;74260;50.772;7.730;2024-01-11T02:45:29;40.75;;;15.82;;
84142;SDS011;74260;50.772;7.730;2024-01-11T02:46:00;39.08;;;15.38;;
84142;SDS011;74260;50.772;7.730;2024-01-11T02:46:30;39.22;;;16.55;;
84142;SDS011;74260;50.772;7.730;2024-01-11T02:47:00;34.45;;;15.52;;
84142;SDS011;74260;50.772;7.730;2024-01-11T02:47:31;36.55;;;16.42;;
84142;SDS011;74260;50.772;7.730;2024-01-11T02:48:01;44.08;;;17.40;;
84142;SDS011;74260;50.772;7.730;2024-01-11T02:48:32;39.65;;;16.77;;
84142;SDS011;74260;50.772;7.730;2024-01-11T02:49:02;42.33;;;16.92;;
84142;SDS011;74260;50.772;7.730;2024-01-11T02:49:32;33.25;;;14.80;;
84142;SDS011;74260;50.772;7.730;2024-01-11T02:50:03;39.83;;;16.17;;
84142;SDS011;74260;50.772;7.730;2024-01-11T02:50:33;35.30;;;15.02;;
84142;SDS011;74260;50.772;7.730;2024-01-11T02:51:03;37.85;;;15.38;;
84142;SDS011;74260;50.772;7.730;2024-01-11T02:51:34;32.03;;;14.45;;
84142;SDS011;74260;50.772;7.730;2024-01-11T02:52:07;39.42;;;15.82;;
84142;SDS011;74260;50.772;7.730;2024-01-11T02:52:38;39.13;;;15.15;;
84142;SDS011;74260;50.772;7.730;2024-01-11T02:53:09;36.97;;;14.93;;
84142;SDS011;74260;50.772;7.730;2024-01-11T02:53:39;37.05;;;15.68;;
84142;SDS011;74260;50.772;7.730;2024-01-11T02:54:09;39.97;;;15.18;;
84142;SDS011;74260;50.772;7.730;2024-01-11T02:54:40;39.08;;;15.02;;
84142;SDS011;74260;50.772;7.730;2024-01-11T02:55:10;37.33;;;15.15;;
84142;SDS011;74260;50.772;7.730;2024-01-11T02:55:43;40.03;;;15.93;;
84142;SDS011;74260;50.772;7.730;2024-01-11T02:56:13;38.33;;;15.52;;
84142;SDS011;74260;50.772;7.730;2024-01-11T02:56:43;37.00;;;14.82;;
84142;SDS011;74260;50.772;7.730;2024-01-11T02:57:14;43.15;;;15.38;;
84142;SDS011;74260;50.772;7.730;2024-01-11T02:57:44;41.97;;;16.25;;
84142;SDS011;74260;50.772;7.730;2024-01-11T02:58:14;35.90;;;14.18;;
84142;SDS011;74260;50.772;7.730;2024-01-11T02:58:45;37.67;;;16.08;;
84142;SDS011;74260;50.772;7.730;2024-01-11T02:59:15;38.60;;;14.73;;
84142;SDS011;74260;50.772;7.730;2024-01-11T02:59:46;44.50;;;16.83;;
84142;SDS011;74260;50.772;7.730;2024-01-11T03:00:16;36.10;;;15.38;;
84142;SDS011;74260;50.772;7.730;2024-01-11T03:00:46;32.60;;;14.07;;
84142;SDS011;74260;50.772;7.730;2024-01-11T03:01:17;39.67;;;15.40;;